sensor_id;sensor_type;location;lat;lon;timestamp;pressure;altitude;pressure_sealevel;temperature;humidity
71621;BME280;59471;42.254;23.102;2023-03-18T00:00:07;96325.47;;;1.61;76.88
71621;BME280;59471;42.254;23.102;2023-03-18T00:02:36;96322.56;;;1.66;77.22
71621;BME280;59471;42.254;23.102;2023-03-18T00:05:03;96308.97;;;1.99;75.77
71621;BME280;59471;42.254;23.102;2023-03-18T00:07:32;96309.91;;;2.09;75.33
71621;BME280;59471;42.254;23.102;2023-03-18T00:09:58;96303.34;;;2.05;75.50
71621;BME280;59471;42.254;23.102;2023-03-18T00:12:23;96303.56;;;2.02;75.46
71621;BME280;59471;42.254;23.102;2023-03-18T00:14:50;96300.03;;;2.03;75.25
71621;BME280;59471;42.254;23.102;2023-03-18T00:17:16;96299.53;;;1.87;75.88
71621;BME280;59471;42.254;23.102;2023-03-18T00:19:42;96287.56;;;1.97;75.04
71621;BME280;59471;42.254;23.102;2023-03-18T00:22:08;96290.66;;;2.14;74.04
71621;BME280;59471;42.254;23.102;2023-03-18T00:24:37;96287.63;;;2.08;75.18
71621;BME280;59471;42.254;23.102;2023-03-18T00:27:03;96288.13;;;2.25;74.57
71621;BME280;59471;42.254;23.102;2023-03-18T00:29:29;96291.38;;;2.16;74.53
71621;BME280;59471;42.254;23.102;2023-03-18T00:31:56;96287.03;;;2.16;74.79
71621;BME280;59471;42.254;23.102;2023-03-18T00:34:23;96288.75;;;1.93;75.84
71621;BME280;59471;42.254;23.102;2023-03-18T00:36:49;96289.16;;;2.22;74.67
71621;BME280;59471;42.254;23.102;2023-03-18T00:39:21;96274.69;;;2.20;73.64
71621;BME280;59471;42.254;23.102;2023-03-18T00:41:53;96288.66;;;2.06;74.66
71621;BME280;59471;42.254;23.102;2023-03-18T00:44:19;96288.97;;;2.01;74.95
71621;BME280;59471;42.254;23.102;2023-03-18T00:46:45;96285.44;;;1.91;74.92
71621;BME280;59471;42.254;23.102;2023-03-18T00:49:11;96281.31;;;1.89;75.76
71621;BME280;59471;42.254;23.102;2023-03-18T00:51:37;96281.22;;;2.01;75.30
71621;BME280;59471;42.254;23.102;2023-03-18T00:54:07;96280.78;;;2.07;74.34
71621;BME280;59471;42.254;23.102;2023-03-18T00:56:35;96275.69;;;1.95;75.17
71621;BME280;59471;42.254;23.102;2023-03-18T00:59:03;96276.81;;;1.79;75.71
71621;BME280;59471;42.254;23.102;2023-03-18T01:01:30;96278.25;;;1.48;76.86
71621;BME280;59471;42.254;23.102;2023-03-18T01:03:56;96273.75;;;1.39;77.61
71621;BME280;59471;42.254;23.102;2023-03-18T01:06:25;96277.03;;;1.41;77.34
71621;BME280;59471;42.254;23.102;2023-03-18T01:08:54;96275.94;;;1.56;76.99
71621;BME280;59471;42.254;23.102;2023-03-18T01:11:22;96278.56;;;1.68;76.83
71621;BME280;59471;42.254;23.102;2023-03-18T01:13:48;96268.03;;;1.71;76.97
71621;BME280;59471;42.254;23.102;2023-03-18T01:16:15;96263.16;;;1.90;76.32
71621;BME280;59471;42.254;23.102;2023-03-18T01:18:41;96257.31;;;1.99;75.47
71621;BME280;59471;42.254;23.102;2023-03-18T01:21:08;96261.75;;;1.97;75.44
71621;BME280;59471;42.254;23.102;2023-03-18T01:23:35;96258.38;;;1.73;76.44
71621;BME280;59471;42.254;23.102;2023-03-18T01:26:02;96251.69;;;1.70;76.30
71621;BME280;59471;42.254;23.102;2023-03-18T01:28:28;96249.44;;;1.66;76.64
71621;BME280;59471;42.254;23.102;2023-03-18T01:30:54;96236.59;;;1.77;76.14
71621;BME280;59471;42.254;23.102;2023-03-18T01:33:22;96246.19;;;1.75;75.79
71621;BME280;59471;42.254;23.102;2023-03-18T01:35:54;96241.13;;;1.73;75.99
71621;BME280;59471;42.254;23.102;2023-03-18T01:38:21;96240.66;;;1.68;75.75
71621;BME280;59471;42.254;23.102;2023-03-18T01:40:48;96237.94;;;1.70;75.69
71621;BME280;59471;42.254;23.102;2023-03-18T01:43:32;96236.19;;;1.70;76.18
71621;BME280;59471;42.254;23.102;2023-03-18T01:46:00;96235.69;;;1.54;75.68
71621;BME280;59471;42.254;23.102;2023-03-18T01:48:36;96227.97;;;1.30;76.50
71621;BME280;59471;42.254;23.102;2023-03-18T01:51:06;96230.22;;;1.34;77.17
71621;BME280;59471;42.254;23.102;2023-03-18T01:53:37;96230.44;;;1.31;76.88
71621;BME280;59471;42.254;23.102;2023-03-18T01:56:06;96229.06;;;1.14;77.32
71621;BME280;59471;42.254;23.102;2023-03-18T01:58:41;96238.47;;;0.79;78.55
71621;BME280;59471;42.254;23.102;2023-03-18T02:01:13;96236.75;;;1.03;78.05
71621;BME280;59471;42.254;23.102;2023-03-18T02:03:45;96229.28;;;1.11;77.87
71621;BME280;59471;42.254;23.102;2023-03-18T02:06:11;96229.38;;;1.34;76.90
71621;BME280;59471;42.254;23.102;2023-03-18T02:08:38;96232.19;;;1.07;76.66
71621;BME280;59471;42.254;23.102;2023-03-18T02:11:06;96232.41;;;1.28;76.51
71621;BME280;59471;42.254;23.102;2023-03-18T02:13:38;96227.63;;;1.34;75.57
71621;BME280;59471;42.254;23.102;2023-03-18T02:16:28;96229.66;;;1.18;75.82
71621;BME280;59471;42.254;23.102;2023-03-18T02:19:02;96235.31;;;0.99;75.56
71621;BME280;59471;42.254;23.102;2023-03-18T02:21:44;96235.19;;;0.77;76.85
71621;BME280;59471;42.254;23.102;2023-03-18T02:27:24;96232.06;;;0.84;77.56
71621;BME280;59471;42.254;23.102;2023-03-18T02:29:56;96237.16;;;0.97;76.87
71621;BME280;59471;42.254;23.102;2023-03-18T02:32:27;96239.66;;;0.49;78.10
71621;BME280;59471;42.254;23.102;2023-03-18T02:34:55;96236.69;;;0.42;78.52
71621;BME280;59471;42.254;23.102;2023-03-18T02:37:21;96231.56;;;0.30;79.64
71621;BME280;59471;42.254;23.102;2023-03-18T02:39:47;96235.97;;;0.40;78.95
71621;BME280;59471;42.254;23.102;2023-03-18T02:42:13;96231.81;;;0.63;78.12
71621;BME280;59471;42.254;23.102;2023-03-18T02:44:44;96219.06;;;0.36;79.53
71621;BME280;59471;42.254;23.102;2023-03-18T02:47:13;96224.09;;;0.38;79.27
71621;BME280;59471;42.254;23.102;2023-03-18T02:49:41;96221.22;;;0.55;78.19
71621;BME280;59471;42.254;23.102;2023-03-18T02:52:07;96225.44;;;0.43;78.71
71621;BME280;59471;42.254;23.102;2023-03-18T02:54:34;96214.88;;;0.22;78.78
71621;BME280;59471;42.254;23.102;2023-03-18T02:56:59;96217.31;;;0.37;79.36
71621;BME280;59471;42.254;23.102;2023-03-18T02:59:25;96206.09;;;0.12;79.22
71621;BME280;59471;42.254;23.102;2023-03-18T03:01:52;96214.97;;;0.21;79.54
71621;BME280;59471;42.254;23.102;2023-03-18T03:04:20;96220.88;;;0.10;79.60
71621;BME280;59471;42.254;23.102;2023-03-18T03:06:48;96224.66;;;0.17;79.84
71621;BME280;59471;42.254;23.102;2023-03-18T03:09:15;96224.75;;;0.41;78.66
71621;BME280;59471;42.254;23.102;2023-03-18T03:11:43;96222.28;;;0.27;78.28
71621;BME280;59471;42.254;23.102;2023-03-18T03:14:10;96219.81;;;0.26;78.43
71621;BME280;59471;42.254;23.102;2023-03-18T03:16:37;96225.28;;;0.08;79.31
71621;BME280;59471;42.254;23.102;2023-03-18T03:19:03;96230.97;;;-0.12;80.17
71621;BME280;59471;42.254;23.102;2023-03-18T03:21:31;96219.84;;;0.00;79.79
71621;BME280;59471;42.254;23.102;2023-03-18T03:23:58;96225.28;;;0.21;79.08
71621;BME280;59471;42.254;23.102;2023-03-18T03:26:24;96224.75;;;-0.22;80.10
71621;BME280;59471;42.254;23.102;2023-03-18T03:28:50;96224.66;;;-0.21;80.31
71621;BME280;59471;42.254;23.102;2023-03-18T03:31:16;96225.59;;;-0.22;80.78
71621;BME280;59471;42.254;23.102;2023-03-18T03:33:43;96235.03;;;-0.22;80.43
71621;BME280;59471;42.254;23.102;2023-03-18T03:36:11;96233.63;;;-0.14;79.81
71621;BME280;59471;42.254;23.102;2023-03-18T03:38:38;96233.81;;;-0.04;79.78
71621;BME280;59471;42.254;23.102;2023-03-18T03:41:06;96236.94;;;0.01;79.04
71621;BME280;59471;42.254;23.102;2023-03-18T03:43:35;96235.28;;;0.00;79.12
71621;BME280;59471;42.254;23.102;2023-03-18T03:46:05;96235.13;;;-0.37;79.23
71621;BME280;59471;42.254;23.102;2023-03-18T03:48:32;96230.09;;;-0.26;79.43
71621;BME280;59471;42.254;23.102;2023-03-18T03:50:57;96234.84;;;-0.19;79.39
71621;BME280;59471;42.254;23.102;2023-03-18T03:53:23;96230.09;;;-0.13;79.68
71621;BME280;59471;42.254;23.102;2023-03-18T03:55:49;96232.59;;;-0.11;78.53
71621;BME280;59471;42.254;23.102;2023-03-18T03:58:15;96231.66;;;0.03;77.99
71621;BME280;59471;42.254;23.102;2023-03-18T04:00:41;96225.69;;;0.02;77.85
71621;BME280;59471;42.254;23.102;2023-03-18T04:03:06;96228.56;;;-0.41;77.80
71621;BME280;59471;42.254;23.102;2023-03-18T04:05:32;96227.84;;;-0.30;78.17
71621;BME280;59471;42.254;23.102;2023-03-18T04:07:58;96231.22;;;-0.42;78.58
71621;BME280;59471;42.254;23.102;2023-03-18T04:10:25;96238.88;;;-0.15;77.93
71621;BME280;59471;42.254;23.102;2023-03-18T04:12:51;96232.56;;;-0.37;78.55
71621;BME280;59471;42.254;23.102;2023-03-18T04:15:18;96238.00;;;-0.29;78.56
71621;BME280;59471;42.254;23.102;2023-03-18T04:17:46;96234.38;;;-0.52;78.90
71621;BME280;59471;42.254;23.102;2023-03-18T04:20:13;96244.41;;;-0.47;79.37
71621;BME280;59471;42.254;23.102;2023-03-18T04:22:39;96244.38;;;-0.60;78.95
71621;BME280;59471;42.254;23.102;2023-03-18T04:25:06;96244.06;;;-0.55;79.48
71621;BME280;59471;42.254;23.102;2023-03-18T04:27:33;96255.97;;;-0.54;78.98
71621;BME280;59471;42.254;23.102;2023-03-18T04:29:59;96251.50;;;-0.38;78.48
71621;BME280;59471;42.254;23.102;2023-03-18T04:32:24;96246.03;;;-0.46;78.88
71621;BME280;59471;42.254;23.102;2023-03-18T04:34:50;96246.97;;;-0.47;79.71
71621;BME280;59471;42.254;23.102;2023-03-18T04:37:16;96246.88;;;-0.33;78.64
71621;BME280;59471;42.254;23.102;2023-03-18T04:39:45;96247.28;;;-0.39;78.88
71621;BME280;59471;42.254;23.102;2023-03-18T04:42:12;96251.38;;;-0.49;79.45
71621;BME280;59471;42.254;23.102;2023-03-18T04:44:37;96249.16;;;-0.95;81.30
71621;BME280;59471;42.254;23.102;2023-03-18T04:47:04;96253.00;;;-0.88;81.15
71621;BME280;59471;42.254;23.102;2023-03-18T04:49:29;96254.59;;;-0.73;81.35
71621;BME280;59471;42.254;23.102;2023-03-18T04:51:55;96255.13;;;-0.67;82.05
71621;BME280;59471;42.254;23.102;2023-03-18T04:54:21;96263.13;;;-0.32;80.87
71621;BME280;59471;42.254;23.102;2023-03-18T04:56:46;96254.53;;;-0.18;79.64
71621;BME280;59471;42.254;23.102;2023-03-18T04:59:12;96256.28;;;-0.19;79.47
71621;BME280;59471;42.254;23.102;2023-03-18T05:01:38;96259.66;;;-0.31;79.56
71621;BME280;59471;42.254;23.102;2023-03-18T05:04:03;96264.69;;;-0.70;80.08
71621;BME280;59471;42.254;23.102;2023-03-18T05:06:30;96259.50;;;-0.55;80.25
71621;BME280;59471;42.254;23.102;2023-03-18T05:08:57;96259.28;;;-0.52;79.12
71621;BME280;59471;42.254;23.102;2023-03-18T05:11:23;96258.34;;;-0.51;78.79
71621;BME280;59471;42.254;23.102;2023-03-18T05:13:49;96264.25;;;-0.36;78.82
71621;BME280;59471;42.254;23.102;2023-03-18T05:16:16;96269.25;;;-0.20;79.25
71621;BME280;59471;42.254;23.102;2023-03-18T05:18:42;96271.28;;;-0.26;78.34
71621;BME280;59471;42.254;23.102;2023-03-18T05:21:09;96271.47;;;-0.29;78.85
71621;BME280;59471;42.254;23.102;2023-03-18T05:23:35;96271.88;;;-0.35;79.37
71621;BME280;59471;42.254;23.102;2023-03-18T05:26:03;96267.19;;;-0.15;78.43
71621;BME280;59471;42.254;23.102;2023-03-18T05:28:30;96266.72;;;-0.35;78.98
71621;BME280;59471;42.254;23.102;2023-03-18T05:30:57;96278.03;;;-0.50;80.15
71621;BME280;59471;42.254;23.102;2023-03-18T05:33:22;96260.94;;;-0.51;80.26
71621;BME280;59471;42.254;23.102;2023-03-18T05:35:48;96272.44;;;-0.04;79.43
71621;BME280;59471;42.254;23.102;2023-03-18T05:38:14;96281.41;;;0.03;78.34
71621;BME280;59471;42.254;23.102;2023-03-18T05:40:39;96283.69;;;0.20;78.21
71621;BME280;59471;42.254;23.102;2023-03-18T05:43:05;96279.97;;;0.25;77.69
71621;BME280;59471;42.254;23.102;2023-03-18T05:45:30;96285.53;;;0.18;77.07
71621;BME280;59471;42.254;23.102;2023-03-18T05:47:56;96284.09;;;0.14;77.67
71621;BME280;59471;42.254;23.102;2023-03-18T05:50:34;96289.44;;;-0.02;77.88
71621;BME280;59471;42.254;23.102;2023-03-18T05:53:02;96286.78;;;0.26;77.89
71621;BME280;59471;42.254;23.102;2023-03-18T05:55:30;96283.69;;;0.33;77.63
71621;BME280;59471;42.254;23.102;2023-03-18T05:57:56;96288.94;;;0.57;77.07
71621;BME280;59471;42.254;23.102;2023-03-18T06:00:23;96289.13;;;0.80;76.45
71621;BME280;59471;42.254;23.102;2023-03-18T06:02:50;96287.66;;;0.76;76.01
71621;BME280;59471;42.254;23.102;2023-03-18T06:05:19;96280.94;;;0.86;75.90
71621;BME280;59471;42.254;23.102;2023-03-18T06:07:45;96288.47;;;0.89;74.93
71621;BME280;59471;42.254;23.102;2023-03-18T06:10:11;96284.31;;;0.99;75.66
71621;BME280;59471;42.254;23.102;2023-03-18T06:12:38;96289.00;;;0.68;76.30
71621;BME280;59471;42.254;23.102;2023-03-18T06:15:08;96291.09;;;0.12;78.88
71621;BME280;59471;42.254;23.102;2023-03-18T06:17:35;96273.59;;;0.43;78.03
71621;BME280;59471;42.254;23.102;2023-03-18T06:20:02;96287.53;;;0.90;77.17
71621;BME280;59471;42.254;23.102;2023-03-18T06:22:29;96287.19;;;1.07;77.22
71621;BME280;59471;42.254;23.102;2023-03-18T06:24:55;96288.00;;;1.08;76.19
71621;BME280;59471;42.254;23.102;2023-03-18T06:27:21;96289.91;;;1.30;75.97
71621;BME280;59471;42.254;23.102;2023-03-18T06:29:47;96282.34;;;1.51;75.46
71621;BME280;59471;42.254;23.102;2023-03-18T06:32:13;96276.19;;;1.29;75.76
71621;BME280;59471;42.254;23.102;2023-03-18T06:34:39;96276.25;;;1.04;77.25
71621;BME280;59471;42.254;23.102;2023-03-18T06:37:05;96272.91;;;0.78;78.13
71621;BME280;59471;42.254;23.102;2023-03-18T06:39:32;96284.03;;;0.91;78.22
71621;BME280;59471;42.254;23.102;2023-03-18T06:41:59;96275.41;;;1.40;77.53
71621;BME280;59471;42.254;23.102;2023-03-18T06:44:25;96283.06;;;1.77;77.06
71621;BME280;59471;42.254;23.102;2023-03-18T06:46:50;96280.28;;;1.91;75.63
71621;BME280;59471;42.254;23.102;2023-03-18T06:49:16;96273.47;;;1.90;75.22
71621;BME280;59471;42.254;23.102;2023-03-18T06:51:42;96276.50;;;1.84;75.88
71621;BME280;59471;42.254;23.102;2023-03-18T06:54:08;96281.69;;;1.95;75.05
71621;BME280;59471;42.254;23.102;2023-03-18T06:56:35;96271.13;;;1.98;76.45
71621;BME280;59471;42.254;23.102;2023-03-18T06:59:06;96272.03;;;2.21;74.40
71621;BME280;59471;42.254;23.102;2023-03-18T07:01:35;96282.03;;;2.37;73.48
71621;BME280;59471;42.254;23.102;2023-03-18T07:04:01;96278.50;;;2.61;73.05
71621;BME280;59471;42.254;23.102;2023-03-18T07:06:28;96274.16;;;2.61;72.88
71621;BME280;59471;42.254;23.102;2023-03-18T07:08:55;96272.84;;;2.67;72.72
71621;BME280;59471;42.254;23.102;2023-03-18T07:11:21;96271.78;;;2.81;72.84
71621;BME280;59471;42.254;23.102;2023-03-18T07:13:47;96272.47;;;3.05;70.66
71621;BME280;59471;42.254;23.102;2023-03-18T07:16:13;96273.31;;;2.83;69.92
71621;BME280;59471;42.254;23.102;2023-03-18T07:18:38;96255.94;;;2.85;70.46
71621;BME280;59471;42.254;23.102;2023-03-18T07:21:05;96254.13;;;3.08;69.99
71621;BME280;59471;42.254;23.102;2023-03-18T07:23:31;96262.31;;;3.24;71.17
71621;BME280;59471;42.254;23.102;2023-03-18T07:25:57;96251.31;;;3.43;71.49
71621;BME280;59471;42.254;23.102;2023-03-18T07:28:23;96257.00;;;3.69;69.69
71621;BME280;59471;42.254;23.102;2023-03-18T07:30:48;96255.75;;;3.53;69.27
71621;BME280;59471;42.254;23.102;2023-03-18T07:33:14;96254.00;;;3.74;69.35
71621;BME280;59471;42.254;23.102;2023-03-18T07:35:40;96259.94;;;3.65;69.73
71621;BME280;59471;42.254;23.102;2023-03-18T07:38:07;96251.41;;;3.74;70.13
71621;BME280;59471;42.254;23.102;2023-03-18T07:40:32;96245.75;;;4.01;69.72
71621;BME280;59471;42.254;23.102;2023-03-18T07:42:58;96254.34;;;4.23;68.39
71621;BME280;59471;42.254;23.102;2023-03-18T07:45:24;96249.97;;;4.54;68.60
71621;BME280;59471;42.254;23.102;2023-03-18T07:47:50;96245.72;;;4.43;66.32
71621;BME280;59471;42.254;23.102;2023-03-18T07:50:16;96248.50;;;4.30;66.90
71621;BME280;59471;42.254;23.102;2023-03-18T07:52:42;96245.59;;;4.45;66.68
71621;BME280;59471;42.254;23.102;2023-03-18T07:55:09;96238.94;;;4.52;65.46
71621;BME280;59471;42.254;23.102;2023-03-18T07:57:36;96238.75;;;4.74;64.29
71621;BME280;59471;42.254;23.102;2023-03-18T08:00:04;96238.22;;;4.80;64.34
71621;BME280;59471;42.254;23.102;2023-03-18T08:02:30;96244.50;;;4.87;63.41
71621;BME280;59471;42.254;23.102;2023-03-18T08:04:56;96249.97;;;4.84;62.93
71621;BME280;59471;42.254;23.102;2023-03-18T08:07:23;96248.13;;;5.06;62.94
71621;BME280;59471;42.254;23.102;2023-03-18T08:09:49;96233.66;;;5.23;61.42
71621;BME280;59471;42.254;23.102;2023-03-18T08:12:15;96242.69;;;5.28;60.70
71621;BME280;59471;42.254;23.102;2023-03-18T08:14:41;96235.88;;;5.47;62.62
71621;BME280;59471;42.254;23.102;2023-03-18T08:17:07;96238.75;;;5.63;60.41
71621;BME280;59471;42.254;23.102;2023-03-18T08:19:34;96236.13;;;5.82;60.98
71621;BME280;59471;42.254;23.102;2023-03-18T08:22:00;96234.75;;;6.17;58.70
71621;BME280;59471;42.254;23.102;2023-03-18T08:24:26;96232.31;;;6.06;59.11
71621;BME280;59471;42.254;23.102;2023-03-18T08:26:52;96244.09;;;6.10;60.21
71621;BME280;59471;42.254;23.102;2023-03-18T08:29:17;96243.25;;;6.19;59.24
71621;BME280;59471;42.254;23.102;2023-03-18T08:31:43;96233.75;;;6.38;57.11
71621;BME280;59471;42.254;23.102;2023-03-18T08:34:09;96233.31;;;6.42;57.81
71621;BME280;59471;42.254;23.102;2023-03-18T08:36:34;96234.06;;;6.72;55.86
71621;BME280;59471;42.254;23.102;2023-03-18T08:39:01;96234.09;;;6.62;55.24
71621;BME280;59471;42.254;23.102;2023-03-18T08:41:28;96225.59;;;6.60;56.04
71621;BME280;59471;42.254;23.102;2023-03-18T08:43:53;96221.13;;;6.80;55.61
71621;BME280;59471;42.254;23.102;2023-03-18T08:46:21;96226.66;;;6.95;55.04
71621;BME280;59471;42.254;23.102;2023-03-18T08:48:47;96216.38;;;6.93;54.72
71621;BME280;59471;42.254;23.102;2023-03-18T08:51:14;96218.28;;;7.01;53.89
71621;BME280;59471;42.254;23.102;2023-03-18T08:53:41;96219.63;;;7.05;54.01
71621;BME280;59471;42.254;23.102;2023-03-18T08:56:06;96217.69;;;7.07;55.17
71621;BME280;59471;42.254;23.102;2023-03-18T08:58:32;96220.06;;;7.18;53.88
71621;BME280;59471;42.254;23.102;2023-03-18T09:00:58;96219.28;;;7.36;53.70
71621;BME280;59471;42.254;23.102;2023-03-18T09:03:26;96222.50;;;7.48;53.03
71621;BME280;59471;42.254;23.102;2023-03-18T09:05:52;96221.50;;;7.31;53.86
71621;BME280;59471;42.254;23.102;2023-03-18T09:08:19;96214.50;;;7.13;53.64
71621;BME280;59471;42.254;23.102;2023-03-18T09:10:46;96216.97;;;7.33;54.21
71621;BME280;59471;42.254;23.102;2023-03-18T09:13:13;96224.78;;;7.69;51.50
71621;BME280;59471;42.254;23.102;2023-03-18T09:15:40;96207.38;;;7.51;51.01
71621;BME280;59471;42.254;23.102;2023-03-18T09:18:06;96208.25;;;7.78;49.15
71621;BME280;59471;42.254;23.102;2023-03-18T09:20:32;96209.84;;;7.71;48.29
71621;BME280;59471;42.254;23.102;2023-03-18T09:22:58;96204.34;;;8.00;47.14
71621;BME280;59471;42.254;23.102;2023-03-18T09:25:24;96199.53;;;7.87;46.87
71621;BME280;59471;42.254;23.102;2023-03-18T09:27:51;96196.88;;;8.31;47.48
71621;BME280;59471;42.254;23.102;2023-03-18T09:30:17;96198.72;;;8.65;48.15
71621;BME280;59471;42.254;23.102;2023-03-18T09:32:43;96187.16;;;8.67;47.43
71621;BME280;59471;42.254;23.102;2023-03-18T09:35:09;96178.22;;;8.78;46.69
71621;BME280;59471;42.254;23.102;2023-03-18T09:37:35;96181.75;;;8.69;46.67
71621;BME280;59471;42.254;23.102;2023-03-18T09:40:01;96187.47;;;8.64;48.06
71621;BME280;59471;42.254;23.102;2023-03-18T09:45:19;96189.47;;;7.92;47.66
71621;BME280;59471;42.254;23.102;2023-03-18T09:50:54;96201.53;;;7.75;48.10
71621;BME280;59471;42.254;23.102;2023-03-18T09:53:49;96191.81;;;7.59;47.44
71621;BME280;59471;42.254;23.102;2023-03-18T09:56:23;96181.56;;;7.84;47.31
71621;BME280;59471;42.254;23.102;2023-03-18T10:02:26;96191.59;;;8.41;47.42
71621;BME280;59471;42.254;23.102;2023-03-18T10:05:00;96190.81;;;8.48;46.46
71621;BME280;59471;42.254;23.102;2023-03-18T10:07:33;96189.38;;;8.28;45.76
71621;BME280;59471;42.254;23.102;2023-03-18T10:10:10;96192.50;;;8.57;47.03
71621;BME280;59471;42.254;23.102;2023-03-18T10:13:04;96183.69;;;8.32;46.28
71621;BME280;59471;42.254;23.102;2023-03-18T10:15:39;96178.16;;;8.35;46.40
71621;BME280;59471;42.254;23.102;2023-03-18T10:26:31;96171.66;;;9.98;39.48
71621;BME280;59471;42.254;23.102;2023-03-18T10:29:31;96161.38;;;9.47;41.29
71621;BME280;59471;42.254;23.102;2023-03-18T10:32:34;96166.13;;;9.85;39.64
71621;BME280;59471;42.254;23.102;2023-03-18T10:38:17;96171.16;;;9.45;37.40
71621;BME280;59471;42.254;23.102;2023-03-18T10:40:49;96164.63;;;9.41;37.82
71621;BME280;59471;42.254;23.102;2023-03-18T10:43:18;96162.38;;;8.71;40.24
71621;BME280;59471;42.254;23.102;2023-03-18T10:45:48;96155.97;;;8.66;42.91
71621;BME280;59471;42.254;23.102;2023-03-18T10:53:42;96155.63;;;8.61;44.07
71621;BME280;59471;42.254;23.102;2023-03-18T10:56:12;96155.81;;;8.67;44.45
71621;BME280;59471;42.254;23.102;2023-03-18T10:58:40;96139.56;;;8.47;44.28
71621;BME280;59471;42.254;23.102;2023-03-18T11:01:08;96141.47;;;8.71;38.35
71621;BME280;59471;42.254;23.102;2023-03-18T11:03:40;96132.56;;;8.98;38.37
71621;BME280;59471;42.254;23.102;2023-03-18T11:06:48;96126.03;;;9.11;37.14
71621;BME280;59471;42.254;23.102;2023-03-18T11:09:20;96135.22;;;9.23;36.81
71621;BME280;59471;42.254;23.102;2023-03-18T11:12:02;96122.16;;;9.31;36.90
71621;BME280;59471;42.254;23.102;2023-03-18T11:14:30;96133.59;;;9.38;36.58
71621;BME280;59471;42.254;23.102;2023-03-18T11:17:02;96123.31;;;9.45;34.90
71621;BME280;59471;42.254;23.102;2023-03-18T11:19:47;96120.69;;;9.78;35.48
71621;BME280;59471;42.254;23.102;2023-03-18T11:22:20;96125.03;;;10.26;37.05
71621;BME280;59471;42.254;23.102;2023-03-18T11:27:40;96132.47;;;9.49;35.60
71621;BME280;59471;42.254;23.102;2023-03-18T11:33:12;96138.16;;;9.36;35.93
71621;BME280;59471;42.254;23.102;2023-03-18T11:38:25;96130.59;;;9.00;34.52
71621;BME280;59471;42.254;23.102;2023-03-18T11:41:04;96112.38;;;9.41;34.81
71621;BME280;59471;42.254;23.102;2023-03-18T11:44:10;96112.34;;;9.90;35.34
71621;BME280;59471;42.254;23.102;2023-03-18T11:46:49;96101.94;;;10.30;34.39
71621;BME280;59471;42.254;23.102;2023-03-18T11:49:21;96110.34;;;10.87;33.53
71621;BME280;59471;42.254;23.102;2023-03-18T12:00:50;96132.94;;;9.61;35.72
71621;BME280;59471;42.254;23.102;2023-03-18T12:06:27;96119.22;;;9.34;36.98
71621;BME280;59471;42.254;23.102;2023-03-18T12:11:45;96128.84;;;9.42;37.05
71621;BME280;59471;42.254;23.102;2023-03-18T12:21:03;96130.00;;;10.92;36.60
71621;BME280;59471;42.254;23.102;2023-03-18T12:23:31;96131.47;;;10.55;36.82
71621;BME280;59471;42.254;23.102;2023-03-18T12:26:14;96132.53;;;10.21;36.05
71621;BME280;59471;42.254;23.102;2023-03-18T12:29:08;96135.03;;;10.62;34.81
71621;BME280;59471;42.254;23.102;2023-03-18T12:37:37;96135.53;;;9.77;39.01
71621;BME280;59471;42.254;23.102;2023-03-18T12:45:39;96140.78;;;9.93;37.64
71621;BME280;59471;42.254;23.102;2023-03-18T12:50:46;96127.66;;;10.26;37.76
71621;BME280;59471;42.254;23.102;2023-03-18T12:53:33;96149.88;;;10.14;38.86
71621;BME280;59471;42.254;23.102;2023-03-18T12:56:17;96142.41;;;9.70;38.72
71621;BME280;59471;42.254;23.102;2023-03-18T13:01:45;96148.94;;;9.74;39.20
71621;BME280;59471;42.254;23.102;2023-03-18T13:04:20;96151.84;;;10.12;40.38
71621;BME280;59471;42.254;23.102;2023-03-18T13:12:57;96148.97;;;11.25;38.12
71621;BME280;59471;42.254;23.102;2023-03-18T13:15:31;96140.00;;;11.19;37.43
71621;BME280;59471;42.254;23.102;2023-03-18T13:18:12;96145.75;;;11.37;37.68
71621;BME280;59471;42.254;23.102;2023-03-18T13:20:45;96143.47;;;11.34;36.34
71621;BME280;59471;42.254;23.102;2023-03-18T13:23:50;96150.66;;;11.41;36.72
71621;BME280;59471;42.254;23.102;2023-03-18T13:26:30;96168.56;;;11.06;37.04
71621;BME280;59471;42.254;23.102;2023-03-18T13:35:59;96158.69;;;11.16;39.73
71621;BME280;59471;42.254;23.102;2023-03-18T13:38:55;96163.31;;;11.06;39.08
71621;BME280;59471;42.254;23.102;2023-03-18T13:44:44;96158.16;;;10.89;37.74
71621;BME280;59471;42.254;23.102;2023-03-18T13:47:23;96156.63;;;10.72;38.80
71621;BME280;59471;42.254;23.102;2023-03-18T13:52:41;96153.63;;;10.83;38.89
71621;BME280;59471;42.254;23.102;2023-03-18T13:55:24;96154.44;;;11.15;38.98
71621;BME280;59471;42.254;23.102;2023-03-18T14:00:34;96159.78;;;11.22;38.07
71621;BME280;59471;42.254;23.102;2023-03-18T14:05:42;96153.94;;;10.88;38.34
71621;BME280;59471;42.254;23.102;2023-03-18T14:14:01;96158.69;;;10.21;39.03
71621;BME280;59471;42.254;23.102;2023-03-18T14:16:46;96163.97;;;10.29;40.96
71621;BME280;59471;42.254;23.102;2023-03-18T14:19:19;96158.06;;;10.35;39.66
71621;BME280;59471;42.254;23.102;2023-03-18T14:22:05;96161.88;;;10.64;39.32
71621;BME280;59471;42.254;23.102;2023-03-18T14:32:59;96174.53;;;10.92;38.75
71621;BME280;59471;42.254;23.102;2023-03-18T14:35:33;96164.53;;;10.56;39.81
71621;BME280;59471;42.254;23.102;2023-03-18T14:38:14;96163.31;;;10.75;39.56
71621;BME280;59471;42.254;23.102;2023-03-18T14:40:47;96172.72;;;11.00;39.03
71621;BME280;59471;42.254;23.102;2023-03-18T14:45:47;96154.06;;;10.95;37.04
71621;BME280;59471;42.254;23.102;2023-03-18T14:48:24;96154.44;;;10.36;38.44
71621;BME280;59471;42.254;23.102;2023-03-18T14:50:59;96150.19;;;10.43;39.17
71621;BME280;59471;42.254;23.102;2023-03-18T14:53:37;96157.09;;;10.28;39.18
71621;BME280;59471;42.254;23.102;2023-03-18T14:56:16;96158.91;;;10.75;38.32
71621;BME280;59471;42.254;23.102;2023-03-18T14:58:45;96160.53;;;10.76;36.85
71621;BME280;59471;42.254;23.102;2023-03-18T15:01:12;96152.78;;;10.91;37.57
71621;BME280;59471;42.254;23.102;2023-03-18T15:03:46;96147.38;;;10.84;36.93
71621;BME280;59471;42.254;23.102;2023-03-18T15:06:24;96152.56;;;11.01;36.39